Weather at Grobnicko Polje Airport

Public forecast

Using degrees Celsius for public forecast. Weather courtesy of forecast.io.

Closest aviation weather report (METAR) to Grobnicko Polje Airport

Closest report is Rijeka Airport, 10.2 nm (18.8 km) SSE. Retrieved 2022/06/24 22:30 UTC (26 minutes ago):

LDRI 242230Z 13006KT CAVOK 24/18 Q1011

Closest aviation forecast (TAF) to Grobnicko Polje Airport

Closest forecast is Rijeka Airport, 10.2 nm (18.8 km) SSE. Retrieved 2022/06/24 18:00 UTC (5 hours ago):

TAF LDRI 241725Z 2418/2518 14007KT 9999 FEW040 TX30/2512Z TN22/2503Z PROB30 TEMPO 2500/2503 TS FEW040CB PROB30 TEMPO 2509/2513 TSRA FEW040CB